| time (UTC) | temp F | wind direction | speed MPH | gust MPH | rain 1hr in | rain 24hr in | rain mn in | humidity % | barometer mb |
| 20260502204854 | 94 | 90 | 9.0 | 16.0 | 0.00 | 0.00 | 0.00 | 8 | 1009.4 |
| 20260502204324 | 94 | 142 | 8.0 | 16.0 | 0.00 | 0.00 | 0.00 | 7 | 1009.5 |
| 20260502203821 | 94 | 95 | 3.0 | 14.0 | 0.00 | 0.00 | 0.00 | 8 | 1009.6 |
| 20260502203332 | 94 | 156 | 4.0 | 14.0 | 0.00 | 0.00 | 0.00 | 8 | 1009.7 |
| 20260502202824 | 93 | 194 | 7.0 | 12.0 | 0.00 | 0.00 | 0.00 | 8 | 1009.9 |
| 20260502202314 | 93 | 122 | 7.0 | 14.0 | 0.00 | 0.00 | 0.00 | 8 | 1009.9 |
| 20260502201827 | 93 | 107 | 9.0 | 14.0 | 0.00 | 0.00 | 0.00 | 8 | 1010.0 |
| 20260502201318 | 94 | 111 | 5.0 | 10.0 | 0.00 | 0.00 | 0.00 | 8 | 1010.0 |
| 20260502200831 | 93 | 139 | 4.0 | 11.0 | 0.00 | 0.00 | 0.00 | 8 | 1010.2 |
| 20260502200342 | 94 | 90 | 8.0 | 11.0 | 0.00 | 0.00 | 0.00 | 8 | 1010.3 |
| 20260502195814 | 94 | 120 | 7.0 | 13.0 | 0.00 | 0.00 | 0.00 | 8 | 1010.4 |
| 20260502195346 | 93 | 142 | 7.0 | 12.0 | 0.00 | 0.00 | 0.00 | 8 | 1010.4 |
| 20260502194816 | 93 | 348 | 1.0 | 9.0 | 0.00 | 0.00 | 0.00 | 8 | 1010.4 |
| 20260502194327 | 93 | 106 | 3.0 | 11.0 | 0.00 | 0.00 | 0.00 | 8 | 1010.5 |
| 20260502193820 | 93 | 139 | 5.0 | 12.0 | 0.00 | 0.00 | 0.00 | 8 | 1010.6 |
| 20260502193331 | 93 | 139 | 10.0 | 12.0 | 0.00 | 0.00 | 0.00 | 8 | 1010.6 |
| 20260502192825 | 93 | 182 | 5.0 | 8.0 | 0.00 | 0.00 | 0.00 | 8 | 1010.6 |
| 20260502192315 | 92 | 199 | 4.0 | 12.0 | 0.00 | 0.00 | 0.00 | 7 | 1010.7 |
| 20260502191829 | 93 | 223 | 6.0 | 12.0 | 0.00 | 0.00 | 0.00 | 7 | 1010.8 |
| 20260502191324 | 92 | 199 | 2.0 | 12.0 | 0.00 | 0.00 | 0.00 | 7 | 1010.9 |
| 20260502190817 | 92 | 119 | 6.0 | 13.0 | 0.00 | 0.00 | 0.00 | 8 | 1011.0 |
| 20260502190329 | 92 | 116 | 6.0 | 13.0 | 0.00 | 0.00 | 0.00 | 7 | 1011.0 |
| 20260502185838 | 92 | 71 | 4.0 | 9.0 | 0.00 | 0.00 | 0.00 | 7 | 1011.0 |
| 20260502185328 | 92 | 108 | 4.0 | 9.0 | 0.00 | 0.00 | 0.00 | 7 | 1011.1 |
| 20260502184821 | 92 | 199 | 4.0 | 13.0 | 0.00 | 0.00 | 0.00 | 7 | 1011.2 |
| 20260502184352 | 92 | 211 | 7.0 | 14.0 | 0.00 | 0.00 | 0.00 | 8 | 1011.2 |
| 20260502183841 | 92 | 174 | 7.0 | 11.0 | 0.00 | 0.00 | 0.00 | 8 | 1011.2 |
| 20260502183331 | 91 | 122 | 5.0 | 10.0 | 0.00 | 0.00 | 0.00 | 8 | 1011.3 |
| 20260502182824 | 91 | 265 | 2.0 | 12.0 | 0.00 | 0.00 | 0.00 | 8 | 1011.3 |
| 20260502182319 | 91 | 202 | 8.0 | 13.0 | 0.00 | 0.00 | 0.00 | 8 | 1011.4 |
| 20260502181831 | 91 | 203 | 4.0 | 13.0 | 0.00 | 0.00 | 0.00 | 7 | 1011.4 |
| 20260502181321 | 91 | 215 | 10.0 | 12.0 | 0.00 | 0.00 | 0.00 | 7 | 1011.5 |
| 20260502180815 | 92 | 138 | 3.0 | 14.0 | 0.00 | 0.00 | 0.00 | 8 | 1011.6 |
| 20260502180326 | 92 | 165 | 9.0 | 16.0 | 0.00 | 0.00 | 0.00 | 8 | 1011.7 |
| 20260502170329 | 88 | 198 | 4.0 | 9.0 | 0.00 | 0.00 | 0.00 | 8 | 1011.8 |
| 20260502164316 | 88 | 190 | 5.0 | 8.0 | 0.00 | 0.00 | 0.00 | 10 | 1012.0 |
| 20260502163830 | 88 | 162 | 6.0 | 8.0 | 0.00 | 0.00 | 0.00 | 9 | 1012.1 |
| 20260502163321 | 88 | 190 | 6.0 | 8.0 | 0.00 | 0.00 | 0.00 | 9 | 1012.0 |
| 20260502162815 | 88 | 166 | 5.0 | 8.0 | 0.00 | 0.00 | 0.00 | 9 | 1012.0 |
| 20260502162326 | 88 | 145 | 6.0 | 8.0 | 0.00 | 0.00 | 0.00 | 9 | 1012.0 |
| 20260502161817 | 88 | 192 | 5.0 | 7.0 | 0.00 | 0.00 | 0.00 | 8 | 1012.0 |
| 20260502161328 | 88 | 175 | 2.0 | 6.0 | 0.00 | 0.00 | 0.00 | 8 | 1012.0 |
| 20260502160821 | 88 | 146 | 4.0 | 6.0 | 0.00 | 0.00 | 0.00 | 8 | 1012.0 |
| 20260502160315 | 88 | 175 | 3.0 | 5.0 | 0.00 | 0.00 | 0.00 | 9 | 1012.0 |
| 20260502152322 | 86 | 328 | 0.0 | 1.0 | 0.00 | 0.00 | 0.00 | 9 | 1011.9 |
| 20260502151819 | 86 | 328 | 0.0 | 1.0 | 0.00 | 0.00 | 0.00 | 10 | 1011.9 |
| 20260502151330 | 85 | 328 | 0.0 | 2.0 | 0.00 | 0.00 | 0.00 | 9 | 1011.8 |
| 20260502150823 | 84 | 328 | 0.0 | 2.0 | 0.00 | 0.00 | 0.00 | 10 | 1011.9 |
| 20260502150315 | 83 | 328 | 0.0 | 0.0 | 0.00 | 0.00 | 0.00 | 10 | 1011.8 |
| 20260502130322 | 69 | 312 | 9.0 | 10.0 | 0.00 | 0.00 | 0.00 | 17 | 1010.7 |
| 20260502123332 | 71 | 310 | 8.0 | 10.0 | 0.00 | 0.00 | 0.00 | 19 | 1010.5 |
| 20260502122825 | 70 | 297 | 9.0 | 10.0 | 0.00 | 0.00 | 0.00 | 19 | 1010.5 |
| 20260502122317 | 70 | 308 | 6.0 | 10.0 | 0.00 | 0.00 | 0.00 | 20 | 1010.5 |
| 20260502121814 | 70 | 297 | 9.0 | 10.0 | 0.00 | 0.00 | 0.00 | 21 | 1010.5 |
| 20260502121347 | 70 | 291 | 7.0 | 9.0 | 0.00 | 0.00 | 0.00 | 22 | 1010.5 |
| 20260502120819 | 70 | 292 | 6.0 | 9.0 | 0.00 | 0.00 | 0.00 | 22 | 1010.4 |
| 20260502120331 | 70 | 303 | 7.0 | 10.0 | 0.00 | 0.00 | 0.00 | 23 | 1010.4 |
| 20260502115820 | 70 | 336 | 6.0 | 10.0 | 0.00 | 0.00 | 0.00 | 23 | 1010.4 |
| 20260502115348 | 70 | 329 | 6.0 | 11.0 | 0.00 | 0.00 | 0.00 | 23 | 1010.3 |
| 20260502114820 | 70 | 292 | 9.0 | 11.0 | 0.00 | 0.00 | 0.00 | 23 | 1010.2 |
| 20260502114352 | 70 | 313 | 7.0 | 10.0 | 0.00 | 0.00 | 0.00 | 23 | 1010.3 |
| 20260502113823 | 70 | 317 | 7.0 | 10.0 | 0.00 | 0.00 | 0.00 | 22 | 1010.3 |
| 20260502113314 | 71 | 301 | 7.0 | 12.0 | 0.00 | 0.00 | 0.00 | 22 | 1010.3 |
| 20260502112825 | 71 | 321 | 9.0 | 12.0 | 0.00 | 0.00 | 0.00 | 21 | 1010.3 |
| 20260502112319 | 71 | 306 | 9.0 | 10.0 | 0.00 | 0.00 | 0.00 | 21 | 1010.3 |
| 20260502111832 | 72 | 324 | 7.0 | 9.0 | 0.00 | 0.00 | 0.00 | 20 | 1010.3 |
| 20260502111323 | 72 | 315 | 5.0 | 10.0 | 0.00 | 0.00 | 0.00 | 19 | 1010.3 |
| 20260502110816 | 72 | 307 | 6.0 | 10.0 | 0.00 | 0.00 | 0.00 | 19 | 1010.3 |
| 20260502110327 | 72 | 289 | 7.0 | 10.0 | 0.00 | 0.00 | 0.00 | 19 | 1010.3 |
| 20260502105838 | 72 | 299 | 8.0 | 10.0 | 0.00 | 0.00 | 0.00 | 19 | 1010.2 |
| 20260502105329 | 71 | 310 | 8.0 | 10.0 | 0.00 | 0.00 | 0.00 | 20 | 1010.2 |
| 20260502104822 | 71 | 311 | 5.0 | 8.0 | 0.00 | 0.00 | 0.00 | 20 | 1010.1 |
| 20260502104316 | 71 | 279 | 6.0 | 8.0 | 0.00 | 0.00 | 0.00 | 21 | 1010.1 |
| 20260502103830 | 71 | 288 | 6.0 | 8.0 | 0.00 | 0.00 | 0.00 | 21 | 1010.0 |
| 20260502103321 | 71 | 300 | 6.0 | 9.0 | 0.00 | 0.00 | 0.00 | 21 | 1009.9 |
| 20260502102832 | 72 | 298 | 7.0 | 9.0 | 0.00 | 0.00 | 0.00 | 21 | 1009.9 |
| 20260502102322 | 72 | 291 | 7.0 | 10.0 | 0.00 | 0.00 | 0.00 | 21 | 1009.9 |
| 20260502101816 | 72 | 298 | 8.0 | 10.0 | 0.00 | 0.00 | 0.00 | 21 | 1010.0 |
| 20260502101327 | 72 | 272 | 6.0 | 10.0 | 0.00 | 0.00 | 0.00 | 22 | 1010.0 |
| 20260502100820 | 72 | 271 | 7.0 | 12.0 | 0.00 | 0.00 | 0.00 | 22 | 1010.0 |
| 20260502100332 | 72 | 286 | 6.0 | 12.0 | 0.00 | 0.00 | 0.00 | 23 | 1009.9 |
| 20260502091337 | 74 | 286 | 7.0 | 12.0 | 0.00 | 0.00 | 0.00 | 22 | 1010.1 |
| 20260502090828 | 74 | 277 | 10.0 | 12.0 | 0.00 | 0.00 | 0.00 | 21 | 1010.0 |
| 20260502090319 | 74 | 290 | 10.0 | 12.0 | 0.00 | 0.00 | 0.00 | 21 | 1010.1 |
| 20260502071313 | 75 | 294 | 9.0 | 12.0 | 0.00 | 0.00 | 0.00 | 25 | 1010.3 |
| 20260502070826 | 75 | 309 | 8.0 | 12.0 | 0.00 | 0.00 | 0.00 | 25 | 1010.3 |
| 20260502070315 | 76 | 284 | 9.0 | 12.0 | 0.00 | 0.00 | 0.00 | 25 | 1010.4 |
| 20260502065824 | 76 | 300 | 8.0 | 11.0 | 0.00 | 0.00 | 0.00 | 25 | 1010.4 |
| 20260502065314 | 76 | 321 | 8.0 | 12.0 | 0.00 | 0.00 | 0.00 | 25 | 1010.4 |
| 20260502064830 | 76 | 305 | 9.0 | 12.0 | 0.00 | 0.00 | 0.00 | 25 | 1010.3 |
| 20260502064341 | 76 | 308 | 10.0 | 12.0 | 0.00 | 0.00 | 0.00 | 26 | 1010.2 |
| 20260502063833 | 75 | 310 | 10.0 | 12.0 | 0.00 | 0.00 | 0.00 | 25 | 1010.3 |
| 20260502063324 | 75 | 279 | 10.0 | 13.0 | 0.00 | 0.00 | 0.00 | 25 | 1010.2 |
| 20260502062816 | 75 | 306 | 10.0 | 13.0 | 0.00 | 0.00 | 0.00 | 25 | 1010.1 |
| 20260502062328 | 75 | 306 | 10.0 | 13.0 | 0.00 | 0.00 | 0.00 | 26 | 1010.1 |
| 20260502061820 | 76 | 292 | 11.0 | 16.0 | 0.00 | 0.00 | 0.00 | 26 | 1010.1 |
| 20260502060824 | 75 | 301 | 11.0 | 15.0 | 0.00 | 0.00 | 0.00 | 29 | 1010.0 |
| 20260502060319 | 75 | 292 | 12.0 | 15.0 | 0.00 | 0.00 | 0.00 | 30 | 1010.0 |
| 20260502055829 | 76 | 296 | 10.0 | 14.0 | 0.00 | 0.00 | 0.00 | 30 | 1010.0 |
| 20260502055319 | 76 | 300 | 12.0 | 14.0 | 0.00 | 0.00 | 0.00 | 30 | 1010.1 |
| 20260502054831 | 76 | 317 | 10.0 | 13.0 | 0.00 | 0.00 | 0.00 | 29 | 1010.1 |
| 20260502054322 | 77 | 313 | 9.0 | 15.0 | 0.00 | 0.00 | 0.00 | 28 | 1010.1 |
| 20260502053835 | 77 | 299 | 11.0 | 15.0 | 0.00 | 0.00 | 0.00 | 28 | 1010.2 |
| 20260502053324 | 77 | 325 | 10.0 | 15.0 | 0.00 | 0.00 | 0.00 | 28 | 1010.2 |
| 20260502052817 | 77 | 303 | 11.0 | 17.0 | 0.00 | 0.00 | 0.00 | 28 | 1010.3 |
| 20260502052328 | 77 | 317 | 11.0 | 17.0 | 0.00 | 0.00 | 0.00 | 28 | 1010.2 |
| 20260502051825 | 77 | 312 | 11.0 | 17.0 | 0.00 | 0.00 | 0.00 | 28 | 1010.1 |
| 20260502051317 | 78 | 306 | 10.0 | 14.0 | 0.00 | 0.00 | 0.00 | 28 | 1010.2 |
| 20260502050831 | 78 | 289 | 10.0 | 14.0 | 0.00 | 0.00 | 0.00 | 28 | 1010.2 |
| 20260502050321 | 78 | 303 | 11.0 | 14.0 | 0.00 | 0.00 | 0.00 | 28 | 1010.2 |
| 20260502045850 | 79 | 290 | 11.0 | 17.0 | 0.00 | 0.00 | 0.00 | 27 | 1010.1 |
| 20260502045318 | 79 | 286 | 12.0 | 17.0 | 0.00 | 0.00 | 0.00 | 27 | 1010.1 |
| 20260502044831 | 79 | 286 | 12.0 | 16.0 | 0.00 | 0.00 | 0.00 | 27 | 1010.0 |
| 20260502044321 | 79 | 281 | 14.0 | 21.0 | 0.00 | 0.00 | 0.00 | 27 | 1010.0 |
| 20260502043814 | 80 | 284 | 15.0 | 21.0 | 0.00 | 0.00 | 0.00 | 26 | 1010.0 |
| 20260502043328 | 80 | 271 | 15.0 | 20.0 | 0.00 | 0.00 | 0.00 | 26 | 1009.9 |
| 20260502042821 | 80 | 293 | 14.0 | 20.0 | 0.00 | 0.00 | 0.00 | 26 | 1009.9 |
| 20260502042313 | 80 | 290 | 14.0 | 19.0 | 0.00 | 0.00 | 0.00 | 26 | 1009.8 |
| 20260502041846 | 81 | 289 | 15.0 | 22.0 | 0.00 | 0.00 | 0.00 | 25 | 1009.8 |
| 20260502041316 | 81 | 265 | 14.0 | 22.0 | 0.00 | 0.00 | 0.00 | 25 | 1009.8 |
| 20260502040827 | 81 | 302 | 16.0 | 23.0 | 0.00 | 0.00 | 0.00 | 25 | 1009.6 |
| 20260502040316 | 81 | 296 | 18.0 | 24.0 | 0.00 | 0.00 | 0.00 | 25 | 1009.5 |
| 20260502035826 | 81 | 279 | 14.0 | 24.0 | 0.00 | 0.00 | 0.00 | 26 | 1009.5 |
| 20260502035317 | 81 | 300 | 14.0 | 21.0 | 0.00 | 0.00 | 0.00 | 27 | 1009.4 |
| 20260502034850 | 81 | 289 | 15.0 | 21.0 | 0.00 | 0.00 | 0.00 | 27 | 1009.3 |
| 20260502034324 | 81 | 301 | 17.0 | 20.0 | 0.00 | 0.00 | 0.00 | 27 | 1009.3 |
| 20260502033838 | 81 | 287 | 14.0 | 20.0 | 0.00 | 0.00 | 0.00 | 27 | 1009.1 |
| 20260502033327 | 82 | 281 | 16.0 | 21.0 | 0.00 | 0.00 | 0.00 | 26 | 1009.0 |
| 20260502032819 | 82 | 271 | 16.0 | 21.0 | 0.00 | 0.00 | 0.00 | 26 | 1008.9 |
| 20260502032330 | 82 | 271 | 15.0 | 20.0 | 0.00 | 0.00 | 0.00 | 25 | 1008.8 |
| 20260502031823 | 82 | 281 | 11.0 | 19.0 | 0.00 | 0.00 | 0.00 | 23 | 1008.7 |
| 20260502031314 | 83 | 303 | 11.0 | 19.0 | 0.00 | 0.00 | 0.00 | 22 | 1008.6 |
| 20260502030826 | 83 | 296 | 14.0 | 18.0 | 0.00 | 0.00 | 0.00 | 21 | 1008.5 |
| 20260502030319 | 83 | 345 | 15.0 | 18.0 | 0.00 | 0.00 | 0.00 | 20 | 1008.5 |
| 20260502025829 | 83 | 317 | 14.0 | 23.0 | 0.00 | 0.00 | 0.00 | 20 | 1008.5 |
| 20260502025324 | 84 | 298 | 18.0 | 23.0 | 0.00 | 0.00 | 0.00 | 19 | 1008.3 |
| 20260502024817 | 84 | 297 | 16.0 | 24.0 | 0.00 | 0.00 | 0.00 | 18 | 1008.3 |
| 20260502024328 | 84 | 284 | 16.0 | 24.0 | 0.00 | 0.00 | 0.00 | 18 | 1008.2 |
| 20260502023820 | 84 | 264 | 16.0 | 21.0 | 0.00 | 0.00 | 0.00 | 17 | 1008.3 |
| 20260502023332 | 84 | 296 | 12.0 | 19.0 | 0.00 | 0.00 | 0.00 | 17 | 1008.2 |
| 20260502022824 | 85 | 309 | 14.0 | 20.0 | 0.00 | 0.00 | 0.00 | 16 | 1008.2 |
| 20260502022315 | 85 | 285 | 16.0 | 25.0 | 0.00 | 0.00 | 0.00 | 15 | 1008.1 |
| 20260502021828 | 85 | 318 | 15.0 | 22.0 | 0.00 | 0.00 | 0.00 | 15 | 1008.1 |
| 20260502021322 | 86 | 294 | 16.0 | 22.0 | 0.00 | 0.00 | 0.00 | 16 | 1007.9 |
| 20260502020836 | 86 | 294 | 16.0 | 23.0 | 0.00 | 0.00 | 0.00 | 16 | 1007.9 |
| 20260502020326 | 86 | 273 | 18.0 | 23.0 | 0.00 | 0.00 | 0.00 | 16 | 1007.8 |
| 20260502015834 | 87 | 267 | 18.0 | 23.0 | 0.00 | 0.00 | 0.00 | 16 | 1007.7 |
| 20260502015344 | 87 | 286 | 16.0 | 25.0 | 0.00 | 0.00 | 0.00 | 15 | 1007.7 |
| 20260502014836 | 87 | 267 | 18.0 | 25.0 | 0.00 | 0.00 | 0.00 | 16 | 1007.7 |
| 20260502014327 | 88 | 289 | 15.0 | 26.0 | 0.00 | 0.00 | 0.00 | 16 | 1007.7 |
| 20260502013820 | 88 | 292 | 19.0 | 28.0 | 0.00 | 0.00 | 0.00 | 16 | 1007.6 |
| 20260502013331 | 88 | 273 | 20.0 | 29.0 | 0.00 | 0.00 | 0.00 | 17 | 1007.6 |
| 20260502012824 | 89 | 281 | 18.0 | 29.0 | 0.00 | 0.00 | 0.00 | 18 | 1007.5 |
| 20260502012320 | 89 | 269 | 17.0 | 25.0 | 0.00 | 0.00 | 0.00 | 17 | 1007.5 |
| 20260502011814 | 89 | 271 | 17.0 | 25.0 | 0.00 | 0.00 | 0.00 | 17 | 1007.5 |
| 20260502011326 | 90 | 257 | 18.0 | 25.0 | 0.00 | 0.00 | 0.00 | 16 | 1007.5 |
| 20260502010818 | 90 | 259 | 17.0 | 24.0 | 0.00 | 0.00 | 0.00 | 16 | 1007.5 |
| 20260502010328 | 90 | 268 | 17.0 | 26.0 | 0.00 | 0.00 | 0.00 | 16 | 1007.5 |
| 20260502005818 | 90 | 251 | 15.0 | 26.0 | 0.00 | 0.00 | 0.00 | 16 | 1007.5 |
| 20260502005328 | 90 | 258 | 18.0 | 26.0 | 0.00 | 0.00 | 0.00 | 16 | 1007.4 |
| 20260502004820 | 91 | 239 | 18.0 | 26.0 | 0.00 | 0.00 | 0.00 | 15 | 1007.5 |
| 20260502004351 | 91 | 296 | 16.0 | 26.0 | 0.00 | 0.00 | 0.00 | 17 | 1007.4 |
| 20260502003822 | 91 | 254 | 19.0 | 26.0 | 0.00 | 0.00 | 0.00 | 16 | 1007.3 |
| 20260502003315 | 91 | 264 | 18.0 | 24.0 | 0.00 | 0.00 | 0.00 | 15 | 1007.3 |
| 20260502002827 | 92 | 263 | 19.0 | 23.0 | 0.00 | 0.00 | 0.00 | 16 | 1007.3 |
| 20260502002318 | 92 | 265 | 16.0 | 27.0 | 0.00 | 0.00 | 0.00 | 16 | 1007.3 |
| 20260502001828 | 92 | 257 | 19.0 | 27.0 | 0.00 | 0.00 | 0.00 | 15 | 1007.3 |
| 20260502001319 | 92 | 269 | 20.0 | 26.0 | 0.00 | 0.00 | 0.00 | 16 | 1007.2 |
| 20260502000831 | 93 | 278 | 16.0 | 25.0 | 0.00 | 0.00 | 0.00 | 16 | 1007.2 |
| 20260502000324 | 93 | 277 | 15.0 | 25.0 | 0.00 | 0.00 | 0.00 | 16 | 1007.3 |
| 20260501235832 | 93 | 261 | 15.0 | 25.0 | 0.00 | 0.00 | 0.00 | 15 | 1007.3 |
| 20260501235327 | 93 | 236 | 13.0 | 25.0 | 0.00 | 0.00 | 0.00 | 15 | 1007.2 |
| 20260501234821 | 94 | 243 | 14.0 | 22.0 | 0.00 | 0.00 | 0.00 | 14 | 1007.2 |
| 20260501234352 | 94 | 316 | 11.0 | 17.0 | 0.00 | 0.00 | 0.00 | 13 | 1007.2 |
| 20260501233823 | 93 | 289 | 12.0 | 17.0 | 0.00 | 0.00 | 0.00 | 13 | 1007.2 |
| 20260501233315 | 94 | 252 | 10.0 | 15.0 | 0.00 | 0.00 | 0.00 | 13 | 1007.3 |
| 20260501232828 | 94 | 218 | 4.0 | 12.0 | 0.00 | 0.00 | 0.00 | 12 | 1007.3 |
| 20260501232321 | 94 | 9 | 5.0 | 12.0 | 0.00 | 0.00 | 0.00 | 12 | 1007.3 |
| 20260501231830 | 94 | 348 | 6.0 | 11.0 | 0.00 | 0.00 | 0.00 | 12 | 1007.3 |
| 20260501231321 | 94 | 344 | 4.0 | 8.0 | 0.00 | 0.00 | 0.00 | 12 | 1007.4 |
| 20260501230854 | 93 | 5 | 2.0 | 8.0 | 0.00 | 0.00 | 0.00 | 13 | 1007.5 |
| 20260501230327 | 92 | 348 | 4.0 | 11.0 | 0.00 | 0.00 | 0.00 | 13 | 1007.6 |
| 20260501225817 | 93 | 289 | 7.0 | 12.0 | 0.00 | 0.00 | 0.00 | 13 | 1007.6 |
| 20260501225347 | 93 | 316 | 5.0 | 10.0 | 0.00 | 0.00 | 0.00 | 13 | 1007.6 |
| 20260501224819 | 93 | 215 | 5.0 | 7.0 | 0.00 | 0.00 | 0.00 | 13 | 1007.7 |
| 20260501224331 | 93 | 126 | 4.0 | 18.0 | 0.00 | 0.00 | 0.00 | 13 | 1007.7 |
| 20260501223825 | 93 | 46 | 5.0 | 18.0 | 0.00 | 0.00 | 0.00 | 13 | 1007.8 |
| 20260501223316 | 93 | 39 | 4.0 | 10.0 | 0.00 | 0.00 | 0.00 | 13 | 1007.8 |
| 20260501222849 | 94 | 82 | 5.0 | 9.0 | 0.00 | 0.00 | 0.00 | 13 | 1008.0 |
| 20260501222318 | 93 | 197 | 3.0 | 17.0 | 0.00 | 0.00 | 0.00 | 13 | 1008.0 |
| 20260501221815 | 93 | 194 | 9.0 | 17.0 | 0.00 | 0.00 | 0.00 | 13 | 1008.2 |
| 20260501221326 | 93 | 227 | 6.0 | 10.0 | 0.00 | 0.00 | 0.00 | 14 | 1008.2 |
| 20260501220819 | 92 | 51 | 3.0 | 7.0 | 0.00 | 0.00 | 0.00 | 14 | 1008.3 |
| 20260501220350 | 93 | 11 | 2.0 | 8.0 | 0.00 | 0.00 | 0.00 | 13 | 1008.4 |
| 20260501215816 | 93 | 207 | 6.0 | 8.0 | 0.00 | 0.00 | 0.00 | 13 | 1008.4 |
| 20260501215346 | 93 | 181 | 3.0 | 10.0 | 0.00 | 0.00 | 0.00 | 13 | 1008.6 |
| 20260501214817 | 94 | 42 | 5.0 | 10.0 | 0.00 | 0.00 | 0.00 | 13 | 1008.7 |
| 20260501214348 | 94 | 42 | 2.0 | 11.0 | 0.00 | 0.00 | 0.00 | 13 | 1008.8 |
| 20260501213818 | 94 | 184 | 5.0 | 14.0 | 0.00 | 0.00 | 0.00 | 13 | 1008.9 |
| 20260501213329 | 94 | 178 | 9.0 | 14.0 | 0.00 | 0.00 | 0.00 | 14 | 1008.9 |
| 20260501212821 | 93 | 355 | 6.0 | 9.0 | 0.00 | 0.00 | 0.00 | 14 | 1008.9 |
| 20260501212316 | 93 | 294 | 5.0 | 12.0 | 0.00 | 0.00 | 0.00 | 14 | 1009.0 |
| 20260501211829 | 93 | 217 | 7.0 | 12.0 | 0.00 | 0.00 | 0.00 | 13 | 1009.0 |
| 20260501211321 | 92 | 215 | 6.0 | 12.0 | 0.00 | 0.00 | 0.00 | 14 | 1009.0 |
| 20260501210833 | 93 | 205 | 5.0 | 12.0 | 0.00 | 0.00 | 0.00 | 14 | 1009.1 |
| 20260501210322 | 92 | 163 | 6.0 | 12.0 | 0.00 | 0.00 | 0.00 | 14 | 1009.2 |
| 20260501205851 | 92 | 242 | 7.0 | 13.0 | 0.00 | 0.00 | 0.00 | 15 | 1009.2 |
| 20260501205322 | 93 | 225 | 7.0 | 13.0 | 0.00 | 0.00 | 0.00 | 15 | 1009.4 |